Terminal Aerodrome Forecast
Issued by NWS Cleveland, OH

Home | Current Version | Previous Version | Graphics & Text | Print | Product List | Glossary On
Versions: 1 2 3 4 5 6 7 8 9 10 11 12 13 14 15 16 17 18 19 20 21 22 23 24 25 26 27 28 29 30 31 32 33 34 35 36 37 38 39
000
FTUS41 KCLE 190800 AAA
TAFCLE
TAF AMD
KCLE 190823Z 1908/2012 30009KT P6SM BKN025 OVC045
      TEMPO 1908/1910 SCT025 BKN045
     FM191000 30009KT P6SM SCT045
      TEMPO 1910/1914 BKN045
     FM191600 29008KT P6SM SCT250
     FM192000 24008KT P6SM SCT250
     FM200000 20006KT P6SM BKN250
     FM200600 20008KT P6SM OVC250=

USA.gov is the U.S. government's official web portal to all federal, state and local government web resources and services.